Time;durP1;ratioP1;P1;durP2;ratioP2;P2;SDS_P1;SDS_P2;PMS_P1;PMS_P2;Temp;Humidity;BMP_temperature;BMP_pressure;BME280_temperature;BME280_humidity;BME280_pressure;Samples;Min_cycle;Max_cycle;Signal;HPM_P1;HPM_P2
2022/12/15 00:39:58;;;;;;;32.03;16.47;;;;;;;-0.90;77.36;94591.45;1774430;81;21043;-66
2022/12/15 00:42:27;;;;;;;24.50;15.83;;;;;;;-0.92;77.78;94583.23;1774814;81;21489;-66
2022/12/15 00:44:55;;;;;;;27.77;15.43;;;;;;;-0.85;77.94;94581.14;1774541;81;21003;-66
2022/12/15 00:47:22;;;;;;;24.80;15.43;;;;;;;-0.84;77.88;94587.18;1774894;81;21553;-66
2022/12/15 01:20:20;;;;;;;44.33;25.20;;;;;;;-0.71;79.11;94601.96;1774724;81;20988;-66
2022/12/15 01:22:52;;;;;;;45.43;23.93;;;;;;;-0.73;80.08;94602.37;1774395;81;21082;-66
2022/12/15 01:25:23;;;;;;;51.02;26.12;;;;;;;-0.66;80.16;94603.76;1774849;81;21118;-66
2022/12/15 01:27:51;;;;;;;44.00;24.73;;;;;;;-0.67;79.86;94611.08;1774715;81;21047;-66
2022/12/15 01:30:22;;;;;;;31.50;18.47;;;;;;;-0.61;80.18;94602.91;1774349;81;21019;-66
2022/12/15 01:32:49;;;;;;;30.13;17.70;;;;;;;-0.53;80.21;94602.13;1774830;81;21043;-66
2022/12/15 01:35:16;;;;;;;32.53;17.73;;;;;;;-0.51;79.82;94594.35;1774688;81;21540;-66
2022/12/15 01:37:44;;;;;;;39.03;21.83;;;;;;;-0.53;79.62;94612.90;1773358;81;21027;-66
2022/12/15 01:43:00;;;;;;;52.53;28.33;;;;;;;-0.55;80.10;94612.91;1770971;81;21043;-66
2022/12/15 01:45:32;;;;;;;48.57;27.00;;;;;;;-0.53;80.30;94620.27;1770893;81;21019;-66
2022/12/15 01:48:09;;;;;;;56.37;26.43;;;;;;;-0.55;80.03;94608.16;1771169;81;21028;-66
2022/12/15 01:50:44;;;;;;;47.40;24.87;;;;;;;-0.57;80.21;94622.81;1770866;81;21003;-66
2022/12/15 01:53:13;;;;;;;34.50;20.57;;;;;;;-0.57;81.05;94627.56;1768333;81;21521;-66
2022/12/15 01:55:43;;;;;;;40.47;22.20;;;;;;;-0.59;80.74;94629.27;1770914;81;21031;-66
2022/12/15 01:58:12;;;;;;;32.77;19.30;;;;;;;-0.54;81.23;94621.54;1770904;81;21019;-66
2022/12/15 02:00:39;;;;;;;31.70;18.90;;;;;;;-0.51;80.98;94632.78;1770772;81;21031;-66
2022/12/15 02:03:07;;;;;;;27.67;17.07;;;;;;;-0.41;81.31;94629.84;1770858;81;20984;-66
2022/12/15 02:05:35;;;;;;;27.93;17.03;;;;;;;-0.36;81.17;94632.05;1770964;81;21064;-66
2022/12/15 02:08:03;;;;;;;28.30;16.13;;;;;;;-0.36;80.90;94624.70;1770887;81;21051;-66
2022/12/15 02:11:11;;;;;;;25.00;15.93;;;;;;;-0.39;80.69;94619.50;1770855;81;21048;-66
2022/12/15 02:14:05;;;;;;;26.63;16.20;;;;;;;-0.53;81.31;94616.38;1770862;81;21092;-66
2022/12/15 02:16:58;;;;;;;30.73;17.10;;;;;;;-0.54;81.80;94615.06;1770809;81;21056;-66
2022/12/15 02:20:00;;;;;;;29.93;16.80;;;;;;;-0.64;82.11;94605.05;1770624;81;20984;-66
2022/12/15 02:23:12;;;;;;;27.40;15.70;;;;;;;-0.63;82.02;94613.68;1770663;81;21548;-66
2022/12/15 02:26:20;;;;;;;29.03;16.73;;;;;;;-0.71;81.85;94609.73;1770945;81;21012;-66
2022/12/15 02:29:24;;;;;;;31.40;16.77;;;;;;;-0.79;82.71;94612.69;1771103;81;21012;-66
2022/12/15 02:32:12;;;;;;;29.55;16.45;;;;;;;-0.74;82.74;94614.89;1771051;81;21015;-66
2022/12/15 02:34:59;;;;;;;24.40;15.47;;;;;;;-0.66;82.70;94611.93;1770968;81;21023;-66
2022/12/15 02:37:36;;;;;;;41.30;23.53;;;;;;;-0.60;82.56;94613.73;1770882;81;21036;-67
2022/12/15 02:40:07;;;;;;;33.43;17.77;;;;;;;-0.61;82.19;94619.31;1770781;81;21019;-67
2022/12/15 02:42:39;;;;;;;29.77;18.07;;;;;;;-0.63;82.06;94621.45;1770917;81;21039;-66
2022/12/15 02:45:14;;;;;;;30.70;18.60;;;;;;;-0.65;82.33;94633.12;1769256;81;21032;-68
2022/12/15 02:47:58;;;;;;;31.83;18.40;;;;;;;-0.59;82.58;94629.70;1771053;81;21035;-66
2022/12/15 02:50:33;;;;;;;33.07;17.97;;;;;;;-0.58;82.07;94631.42;1771018;81;21545;-66
2022/12/15 02:53:16;;;;;;;29.77;17.80;;;;;;;-0.59;82.13;94632.30;1770501;80;21019;-66
2022/12/15 02:56:05;;;;;;;29.32;17.55;;;;;;;-0.57;82.46;94630.16;1771212;81;21115;-66
2022/12/15 02:59:14;;;;;;;32.77;17.20;;;;;;;-0.55;82.38;94626.30;1770901;81;21051;-66
2022/12/15 03:01:56;;;;;;;27.97;16.90;;;;;;;-0.49;82.33;94623.73;1770799;81;21052;-66
2022/12/15 03:04:26;;;;;;;28.50;17.48;;;;;;;-0.44;82.15;94627.23;1771013;81;20984;-66
2022/12/15 03:06:56;;;;;;;35.77;20.80;;;;;;;-0.49;82.05;94625.90;1770994;81;21062;-66
2022/12/15 03:09:22;;;;;;;32.90;18.07;;;;;;;-0.58;81.95;94627.14;1771013;81;21027;-66
2022/12/15 03:11:50;;;;;;;28.73;16.83;;;;;;;-0.61;82.07;94625.80;1771200;81;21526;-66
2022/12/15 03:14:16;;;;;;;29.73;17.40;;;;;;;-0.67;82.31;94625.75;1771166;81;20992;-66
2022/12/15 03:16:43;;;;;;;32.03;19.00;;;;;;;-0.72;82.47;94627.00;1770927;81;21055;-66
2022/12/15 03:19:10;;;;;;;35.90;20.37;;;;;;;-0.76;82.84;94631.70;1771197;81;21571;-67
2022/12/15 03:21:36;;;;;;;27.60;17.77;;;;;;;-0.75;82.57;94624.83;1770902;81;21019;-67
2022/12/15 03:24:03;;;;;;;31.50;17.63;;;;;;;-0.77;82.91;94623.50;1771050;81;21028;-66
2022/12/15 03:26:30;;;;;;;31.97;18.90;;;;;;;-0.76;82.80;94628.25;1771076;81;21085;-66
2022/12/15 03:28:57;;;;;;;32.07;18.17;;;;;;;-0.74;82.64;94629.14;1770912;81;21020;-66
2022/12/15 03:31:23;;;;;;;34.47;19.23;;;;;;;-0.71;83.00;94623.98;1770960;81;21490;-66
2022/12/15 03:33:50;;;;;;;33.07;19.43;;;;;;;-0.62;83.20;94626.66;1771086;81;21011;-66
2022/12/15 03:36:16;;;;;;;33.73;18.20;;;;;;;-0.56;82.60;94629.72;1740869;81;21107;-67
2022/12/15 03:38:43;;;;;;;33.20;20.53;;;;;;;-0.56;82.34;94627.13;1770906;81;21012;-66
2022/12/15 03:41:09;;;;;;;35.63;20.33;;;;;;;-0.52;82.47;94619.84;1771086;81;21067;-66
2022/12/15 03:43:36;;;;;;;49.60;25.90;;;;;;;-0.55;82.68;94623.70;1770981;81;20980;-67
2022/12/15 03:46:02;;;;;;;45.17;24.97;;;;;;;-0.49;82.89;94623.30;1770855;81;20996;-66
2022/12/15 03:48:28;;;;;;;46.47;24.53;;;;;;;-0.42;82.50;94624.23;1770986;81;21015;-67
2022/12/15 03:50:55;;;;;;;42.83;23.83;;;;;;;-0.41;82.73;94623.36;1770988;81;21521;-66
2022/12/15 03:53:21;;;;;;;40.23;22.30;;;;;;;-0.32;82.98;94629.92;1771049;81;21011;-66
2022/12/15 03:55:48;;;;;;;33.77;20.30;;;;;;;-0.34;82.34;94629.47;1771020;81;21512;-67
2022/12/15 03:58:14;;;;;;;28.60;17.77;;;;;;;-0.32;82.58;94623.45;1770969;81;20988;-67
2022/12/15 04:00:41;;;;;;;32.20;18.47;;;;;;;-0.30;82.63;94637.72;1771065;81;20984;-67
2022/12/15 04:03:10;;;;;;;32.50;18.93;;;;;;;-0.27;82.58;94647.67;1771010;81;21027;-66
2022/12/15 04:05:38;;;;;;;44.03;22.93;;;;;;;-0.25;82.59;94661.52;1771009;81;21063;-67
2022/12/15 04:08:05;;;;;;;41.73;22.53;;;;;;;-0.25;82.32;94657.63;1771040;81;21019;-66
2022/12/15 04:10:33;;;;;;;41.87;22.10;;;;;;;-0.25;82.51;94659.36;1770925;81;21513;-66
2022/12/15 04:13:07;;;;;;;39.97;21.63;;;;;;;-0.34;82.52;94649.77;1770961;81;21023;-66
2022/12/15 04:15:37;;;;;;;39.20;21.40;;;;;;;-0.36;82.84;94640.25;1771061;81;21020;-66
2022/12/15 04:18:08;;;;;;;87.10;40.27;;;;;;;-0.41;82.78;94645.39;1770804;81;21019;-67
2022/12/15 04:20:36;;;;;;;255.30;104.57;;;;;;;-0.37;83.01;94657.97;1771074;81;21494;-66
2022/12/15 04:23:06;;;;;;;50.97;24.00;;;;;;;-0.34;83.23;94648.91;1771061;81;21059;-66
2022/12/15 05:32:24;;;;;;;30.83;20.57;;;;;;;-0.50;84.38;94686.36;1770920;81;20984;-66
2022/12/15 05:34:51;;;;;;;35.17;19.90;;;;;;;-0.55;84.10;94688.05;1771497;81;21012;-66
2022/12/15 05:37:17;;;;;;;37.13;20.00;;;;;;;-0.57;84.11;94689.75;1770945;81;21020;-67
2022/12/15 05:39:44;;;;;;;30.00;19.40;;;;;;;-0.58;84.32;94703.56;1770874;81;21509;-66
2022/12/15 05:42:11;;;;;;;33.27;19.40;;;;;;;-0.48;84.94;94704.09;1770879;81;21020;-66
2022/12/15 05:44:37;;;;;;;31.37;18.03;;;;;;;-0.41;84.85;94704.14;1770910;81;21031;-66
2022/12/15 05:47:04;;;;;;;30.67;19.10;;;;;;;-0.48;83.76;94719.64;1770817;81;21016;-67
2022/12/15 05:49:32;;;;;;;32.63;18.83;;;;;;;-0.58;83.81;94729.88;1770912;81;21481;-67
2022/12/15 05:51:58;;;;;;;32.23;19.47;;;;;;;-0.55;84.19;94729.50;1770859;81;21067;-66
2022/12/15 05:54:25;;;;;;;32.50;18.57;;;;;;;-0.55;84.23;94737.27;1770970;81;21486;-68
2022/12/15 05:56:52;;;;;;;30.93;17.83;;;;;;;-0.47;84.52;94752.47;1769937;81;20962;-67
2022/12/15 05:59:19;;;;;;;30.37;18.57;;;;;;;-0.44;84.30;94755.08;1770210;81;21165;-69
2022/12/15 06:01:46;;;;;;;32.27;17.97;;;;;;;-0.40;84.67;94752.51;1760639;81;21038;-72
2022/12/15 06:04:13;;;;;;;29.37;17.77;;;;;;;-0.38;84.10;94758.59;1777996;81;21043;-70
2022/12/15 06:06:40;;;;;;;30.40;18.07;;;;;;;-0.34;84.21;94763.81;1764468;81;21104;-71
2022/12/15 06:09:08;;;;;;;32.97;17.83;;;;;;;-0.30;84.25;94773.81;1770368;81;21013;-71
2022/12/15 06:11:36;;;;;;;29.63;17.27;;;;;;;-0.27;84.10;94775.13;1763962;81;20977;-69
2022/12/15 06:14:02;;;;;;;30.10;18.33;;;;;;;-0.22;84.22;94782.52;1774468;81;21025;-69
2022/12/15 06:16:29;;;;;;;30.33;17.40;;;;;;;-0.13;84.32;94794.25;1775825;81;20958;-68
2022/12/15 06:18:59;;;;;;;28.77;16.27;;;;;;;-0.10;84.32;94793.41;1779134;81;21038;-67
2022/12/15 06:21:30;;;;;;;26.53;15.40;;;;;;;-0.04;84.02;94801.27;1774502;81;21665;-66
2022/12/15 06:23:57;;;;;;;32.13;18.57;;;;;;;-0.14;83.27;94801.60;1745634;82;21526;-66
2022/12/15 06:26:31;;;;;;;28.10;17.90;;;;;;;-0.16;83.54;94811.52;1767752;81;21058;-68
2022/12/15 06:29:03;;;;;;;34.43;19.07;;;;;;;-0.14;84.07;94811.97;1744913;82;21499;-68
2022/12/15 06:31:31;;;;;;;34.80;21.60;;;;;;;-0.12;83.92;94814.59;1767550;81;21033;-68
2022/12/15 06:33:58;;;;;;;29.33;18.70;;;;;;;-0.09;84.18;94817.21;1745664;82;21018;-66
2022/12/15 06:36:27;;;;;;;35.13;19.53;;;;;;;-0.10;84.26;94822.83;1768015;81;20998;-69
2022/12/15 06:38:53;;;;;;;31.53;18.90;;;;;;;-0.05;84.69;94834.12;1744070;81;20991;-68
2022/12/15 06:41:21;;;;;;;32.47;18.37;;;;;;;0.05;84.92;94836.77;1770830;81;21038;-69
2022/12/15 06:43:56;;;;;;;32.80;18.80;;;;;;;0.09;84.56;94835.96;1770640;81;21030;-66
2022/12/15 06:46:25;;;;;;;25.10;16.13;;;;;;;0.09;84.35;94843.31;1770570;81;21543;-68
2022/12/15 06:48:52;;;;;;;31.00;17.97;;;;;;;0.13;84.03;94847.69;1770278;81;21034;-69
2022/12/15 06:51:19;;;;;;;32.60;19.70;;;;;;;0.05;83.48;94841.96;1770702;81;21052;-65
2022/12/15 06:53:52;;;;;;;37.60;19.97;;;;;;;0.08;83.87;94860.17;1770950;81;21028;-67
2022/12/15 06:56:26;;;;;;;38.47;20.53;;;;;;;0.10;83.79;94858.44;1770923;81;20988;-66
2022/12/15 06:58:53;;;;;;;40.30;24.10;;;;;;;0.07;83.80;94854.52;1770203;81;21088;-65
2022/12/15 07:01:23;;;;;;;46.07;27.57;;;;;;;0.09;84.03;94866.66;1770538;81;21132;-68
2022/12/15 07:03:51;;;;;;;47.27;29.27;;;;;;;0.08;83.55;94868.81;1770784;81;21039;-67
2022/12/15 07:06:18;;;;;;;77.00;39.27;;;;;;;0.07;83.55;94871.38;1770857;81;21815;-67
2022/12/15 07:08:51;;;;;;;125.57;56.60;;;;;;;0.00;83.95;94875.66;1770996;81;21024;-67
2022/12/15 07:11:20;;;;;;;58.67;32.87;;;;;;;-0.04;84.57;94877.33;1770455;81;21094;-66
2022/12/15 07:13:51;;;;;;;42.17;23.47;;;;;;;0.03;84.40;94880.88;1769948;81;21043;-67
2022/12/15 07:16:20;;;;;;;52.47;29.00;;;;;;;0.05;84.44;94891.24;1770120;81;21019;-67
2022/12/15 07:18:46;;;;;;;69.73;38.83;;;;;;;0.07;84.92;94886.95;1770517;81;21080;-66
2022/12/15 07:21:13;;;;;;;69.83;35.23;;;;;;;0.11;84.68;94894.78;1769466;81;21047;-66
2022/12/15 07:23:40;;;;;;;72.33;34.87;;;;;;;0.16;84.58;94894.40;1749223;81;21038;-66
2022/12/15 07:26:08;;;;;;;77.13;36.03;;;;;;;0.16;84.33;94895.69;1756550;81;20971;-67
2022/12/15 07:28:36;;;;;;;50.03;26.63;;;;;;;0.25;84.92;94903.12;1761288;81;21113;-67
2022/12/15 07:31:06;;;;;;;60.20;29.07;;;;;;;0.26;84.31;94900.98;1761576;81;21520;-66
2022/12/15 07:33:34;;;;;;;71.87;34.70;;;;;;;0.25;83.73;94898.79;1761486;81;21516;-66
2022/12/15 07:36:03;;;;;;;58.57;29.17;;;;;;;0.21;83.76;94905.69;1761884;81;21029;-67
2022/12/15 07:38:30;;;;;;;39.23;22.90;;;;;;;0.21;84.28;94905.69;1758331;81;22678;-68
2022/12/15 07:41:03;;;;;;;43.13;23.53;;;;;;;0.24;84.04;94914.36;1742790;81;21054;-66
2022/12/15 07:43:30;;;;;;;50.93;26.60;;;;;;;0.21;84.12;94912.17;1743055;82;21019;-66
2022/12/15 07:45:56;;;;;;;49.87;30.13;;;;;;;0.24;84.05;94916.52;1743217;81;20995;-67
2022/12/15 07:48:23;;;;;;;44.73;26.07;;;;;;;0.27;83.92;94921.73;1731983;83;21022;-67
2022/12/15 07:50:56;;;;;;;30.60;17.43;;;;;;;0.31;83.81;94925.25;1732551;83;20998;-65
2022/12/15 07:53:18;;;;;;;97.90;53.33;;;;;;;0.35;83.68;94933.09;1741637;81;21097;-67
2022/12/15 07:55:57;;;;;;;43.80;26.13;;;;;;;0.27;82.88;94933.41;1770365;81;21548;-68
2022/12/15 07:58:26;;;;;;;46.37;29.97;;;;;;;0.29;83.35;94941.22;1769925;81;21063;-67
2022/12/15 08:00:59;;;;;;;40.07;23.30;;;;;;;0.30;83.15;94942.95;1770100;81;21008;-67
2022/12/15 08:03:25;;;;;;;31.77;19.20;;;;;;;0.25;82.54;94942.90;1769969;81;21051;-68
2022/12/15 08:05:52;;;;;;;31.50;17.80;;;;;;;0.16;81.98;94942.39;1769666;81;21031;-66
2022/12/15 08:08:21;;;;;;;39.47;24.23;;;;;;;0.21;82.75;94952.82;1765023;81;21030;-68
2022/12/15 08:10:48;;;;;;;39.10;23.03;;;;;;;0.28;82.65;94964.11;1761889;81;21105;-67
2022/12/15 08:13:15;;;;;;;37.70;21.40;;;;;;;0.32;82.95;94969.36;1761930;81;21484;-66
2022/12/15 08:15:42;;;;;;;35.40;21.57;;;;;;;0.47;83.18;94979.46;1761578;81;21144;-65
2022/12/15 08:18:10;;;;;;;51.00;35.00;;;;;;;0.54;82.80;94990.36;1761656;81;21150;-66
2022/12/15 08:20:36;;;;;;;76.73;40.83;;;;;;;0.58;82.47;94990.81;1761672;81;21069;-67
2022/12/15 08:23:03;;;;;;;67.73;35.57;;;;;;;0.58;82.17;94997.30;1762069;81;21512;-65
2022/12/15 08:25:30;;;;;;;141.27;61.93;;;;;;;0.52;81.29;94999.41;1762092;81;21159;-65
2022/12/15 08:27:56;;;;;;;192.00;75.47;;;;;;;0.42;81.28;94998.44;1761475;81;21038;-69
2022/12/15 08:30:23;;;;;;;78.87;34.63;;;;;;;0.42;81.52;94996.28;1761580;81;21548;-66
2022/12/15 08:32:51;;;;;;;124.73;56.63;;;;;;;0.46;81.91;94985.52;1761736;81;21038;-64
2022/12/15 08:35:17;;;;;;;95.33;47.83;;;;;;;0.46;81.68;94994.17;1761789;81;21042;-67
2022/12/15 08:37:44;;;;;;;62.73;34.00;;;;;;;0.47;81.65;95002.83;1762502;81;21498;-64
2022/12/15 08:40:12;;;;;;;73.50;40.13;;;;;;;0.36;80.98;95010.06;1764374;81;21058;-64
2022/12/15 08:42:39;;;;;;;77.93;39.53;;;;;;;0.42;81.29;95011.85;1766384;81;21026;-65
2022/12/15 08:45:07;;;;;;;55.63;31.60;;;;;;;0.47;81.30;94997.20;1766191;81;21524;-71
2022/12/15 08:47:34;;;;;;;39.73;23.63;;;;;;;0.55;81.83;94999.88;1766043;81;21597;-64
2022/12/15 08:50:00;;;;;;;38.50;22.77;;;;;;;0.59;81.90;95008.14;1766300;81;21123;-67
2022/12/15 08:52:27;;;;;;;27.40;17.33;;;;;;;0.70;81.94;95010.84;1765911;81;21070;-64
2022/12/15 08:54:54;;;;;;;28.57;18.07;;;;;;;0.78;81.67;95017.86;1766408;81;20958;-67
2022/12/15 08:57:21;;;;;;;29.57;17.77;;;;;;;0.79;81.41;95012.23;1779599;81;21488;-65
2022/12/15 08:59:47;;;;;;;38.13;22.70;;;;;;;0.84;81.71;95012.72;1763803;81;20998;-67
2022/12/15 09:02:14;;;;;;;38.37;23.87;;;;;;;0.92;81.44;95010.19;1763545;81;21069;-66
2022/12/15 09:04:42;;;;;;;52.37;32.27;;;;;;;0.98;81.26;95004.17;1779467;81;21572;-72
2022/12/15 09:07:09;;;;;;;52.67;31.30;;;;;;;1.00;80.99;95015.02;1763465;81;21026;-65
2022/12/15 09:09:36;;;;;;;35.97;21.77;;;;;;;1.04;80.95;95008.14;1763921;81;21006;-67
2022/12/15 09:12:03;;;;;;;33.80;21.33;;;;;;;1.13;81.26;94995.20;1763613;81;21082;-66
2022/12/15 09:14:30;;;;;;;40.97;21.33;;;;;;;1.21;80.82;95000.45;1763870;81;21499;-68
2022/12/15 09:16:56;;;;;;;43.57;23.50;;;;;;;1.30;80.26;94997.50;1763859;81;21086;-67
2022/12/15 09:19:24;;;;;;;43.30;23.60;;;;;;;1.42;80.88;94994.56;1762947;81;21113;-68
2022/12/15 09:21:50;;;;;;;53.70;29.37;;;;;;;1.55;80.84;95000.27;1748737;81;21030;-68
2022/12/15 09:24:17;;;;;;;37.33;22.77;;;;;;;1.58;78.76;95008.09;1769543;81;21051;-70
2022/12/15 09:26:44;;;;;;;40.43;25.07;;;;;;;1.47;78.67;95009.33;1769199;81;21468;-71
2022/12/15 09:29:16;;;;;;;42.93;24.47;;;;;;;1.46;79.25;95014.50;1749052;81;21016;-70
2022/12/15 09:31:43;;;;;;;33.73;19.97;;;;;;;1.48;79.66;95017.55;1757997;81;21022;-71
2022/12/15 09:34:13;;;;;;;49.43;32.17;;;;;;;1.51;79.71;95028.40;1756736;81;20982;-74
2022/12/15 09:36:40;;;;;;;32.20;19.07;;;;;;;1.60;80.28;95032.81;1749136;82;20990;-71
2022/12/15 09:39:08;;;;;;;30.77;17.77;;;;;;;1.63;79.96;95028.92;1749223;82;21025;-71
2022/12/15 09:41:35;;;;;;;30.40;20.00;;;;;;;1.66;79.98;95032.84;1753833;81;21532;-74
2022/12/15 09:44:18;;;;;;;34.00;19.53;;;;;;;1.75;79.90;95030.75;1746528;82;21058;-71
2022/12/15 09:47:16;;;;;;;35.68;20.45;;;;;;;1.83;80.05;95026.02;1747690;81;20991;-69
2022/12/15 09:49:56;;;;;;;30.20;18.07;;;;;;;1.85;79.30;95030.80;1746954;81;21607;-75
2022/12/15 09:52:39;;;;;;;32.50;20.83;;;;;;;1.90;79.44;95037.34;1747191;81;20980;-71
2022/12/15 09:55:20;;;;;;;36.40;21.60;;;;;;;1.83;78.82;95031.66;1746495;82;21114;-73
2022/12/15 09:57:55;;;;;;;37.70;22.03;;;;;;;1.84;79.86;95032.08;1746443;82;21075;-69
2022/12/15 10:00:30;;;;;;;35.53;19.67;;;;;;;1.88;79.79;95024.74;1747510;81;21018;-67
2022/12/15 10:03:22;;;;;;;33.23;20.87;;;;;;;1.91;79.98;95023.02;1747639;82;21015;-70
2022/12/15 10:06:03;;;;;;;42.03;23.90;;;;;;;1.94;79.88;95040.38;1747103;82;21046;-70
2022/12/15 10:08:38;;;;;;;38.03;21.70;;;;;;;1.90;79.68;95031.70;1747519;82;20983;-70
2022/12/15 10:11:16;;;;;;;35.20;20.77;;;;;;;1.92;79.92;95034.31;1747542;81;21076;-70
2022/12/15 10:14:16;;;;;;;38.17;21.97;;;;;;;1.89;79.48;95035.17;1746413;82;21034;-70
2022/12/15 10:17:07;;;;;;;36.27;22.40;;;;;;;1.91;79.79;95032.56;1747306;82;21513;-70
2022/12/15 10:19:41;;;;;;;28.03;17.90;;;;;;;2.00;80.38;95033.05;1747514;81;21002;-70
2022/12/15 10:22:12;;;;;;;31.37;18.47;;;;;;;2.03;79.70;95031.77;1747489;82;21531;-70
2022/12/15 10:24:40;;;;;;;31.57;19.30;;;;;;;2.00;79.44;95034.36;1747483;82;21042;-70
2022/12/15 10:27:39;;;;;;;39.50;22.83;;;;;;;2.02;79.45;95030.91;1746778;81;20972;-70
2022/12/15 10:30:09;;;;;;;51.60;30.23;;;;;;;2.02;79.45;95025.70;1745849;82;21077;-70
2022/12/15 10:33:02;;;;;;;51.30;26.13;;;;;;;2.08;79.94;95023.11;1747014;81;21560;-71
2022/12/15 10:35:33;;;;;;;60.93;33.67;;;;;;;2.12;79.92;95019.67;1747241;82;20999;-71
2022/12/15 10:38:07;;;;;;;71.07;38.03;;;;;;;2.23;80.32;95024.92;1740553;82;22371;-70
2022/12/15 10:41:00;;;;;;;53.90;31.45;;;;;;;2.32;80.36;95025.41;1747265;81;21177;-70
2022/12/15 10:43:38;;;;;;;53.13;31.07;;;;;;;2.43;80.12;95031.95;1755649;82;21026;-70
2022/12/15 10:46:24;;;;;;;38.13;22.90;;;;;;;2.50;80.19;95026.77;1755418;82;21799;-71
2022/12/15 10:48:58;;;;;;;37.67;22.23;;;;;;;2.61;80.00;95022.88;1754180;82;21076;-70
2022/12/15 10:51:39;;;;;;;30.73;19.63;;;;;;;2.69;79.83;95025.06;1755233;81;21026;-70
2022/12/15 10:54:12;;;;;;;31.87;20.67;;;;;;;2.72;79.65;95033.31;1755251;82;21070;-70
2022/12/15 10:56:58;;;;;;;36.15;21.57;;;;;;;2.73;79.34;95035.94;1755694;82;21035;-70
2022/12/15 10:59:35;;;;;;;42.37;24.03;;;;;;;2.76;79.47;95033.77;1755773;82;21026;-71
2022/12/15 11:02:31;;;;;;;43.07;25.97;;;;;;;2.77;79.22;95034.20;1755928;82;21503;-70
2022/12/15 11:05:02;;;;;;;44.43;26.60;;;;;;;2.79;79.48;95041.16;1755006;81;21039;-70
2022/12/15 11:07:40;;;;;;;42.87;27.67;;;;;;;2.83;79.62;95045.95;1749752;82;21034;-70
2022/12/15 11:12:50;;;;;;;41.60;26.97;;;;;;;2.87;79.76;95044.21;1755958;81;21018;-70
2022/12/15 11:13:16;;;;;;;38.45;23.50;;;;;;;2.90;79.50;95045.52;1751747;82;21066;-70
2022/12/15 11:15:51;;;;;;;37.23;23.00;;;;;;;2.89;78.93;95058.12;1754325;82;21054;-70
2022/12/15 11:18:52;;;;;;;26.73;16.80;;;;;;;2.90;79.53;95058.14;1755769;82;20983;-70
2022/12/15 11:21:23;;;;;;;36.20;21.77;;;;;;;2.91;78.82;95059.86;1755735;82;21023;-70
2022/12/15 11:24:26;;;;;;;33.20;20.63;;;;;;;2.89;79.23;95057.68;1755852;82;21544;-70
2022/12/15 11:27:14;;;;;;;32.20;17.47;;;;;;;2.91;78.75;95056.39;1755043;82;21109;-70
2022/12/15 11:29:49;;;;;;;30.93;17.77;;;;;;;2.82;78.49;95050.71;1755864;82;20991;-70
2022/12/15 11:32:21;;;;;;;33.47;20.63;;;;;;;2.80;79.33;95057.68;1755750;81;21078;-70
2022/12/15 11:34:48;;;;;;;37.77;23.43;;;;;;;2.88;79.28;95050.74;1755713;82;21516;-70
2022/12/15 11:37:37;;;;;;;39.03;24.50;;;;;;;2.92;79.52;95048.56;1755941;82;20983;-70
2022/12/15 11:40:33;;;;;;;35.67;22.73;;;;;;;2.88;79.46;95050.74;1755981;81;21484;-70
2022/12/15 11:43:35;;;;;;;35.87;20.33;;;;;;;2.83;79.93;95045.95;1734490;81;21543;-70
2022/12/15 11:46:20;;;;;;;44.23;25.87;;;;;;;2.90;80.25;95055.53;1737409;83;21034;-69
2022/12/15 11:49:27;;;;;;;45.57;26.43;;;;;;;2.83;80.13;95056.38;1769375;81;21069;-70
2022/12/15 11:52:22;;;;;;;44.30;22.70;;;;;;;2.79;80.21;95062.43;1769749;81;21122;-70
2022/12/15 11:54:56;;;;;;;41.47;24.23;;;;;;;2.77;80.24;95073.28;1770025;81;21571;-70
2022/12/15 11:57:48;;;;;;;41.57;23.33;;;;;;;2.74;80.59;95088.91;1770151;81;21021;-70
2022/12/15 12:00:20;;;;;;;40.43;25.33;;;;;;;2.71;80.77;95091.50;1752917;81;21520;-70
2022/12/15 12:03:22;;;;;;;38.43;23.23;;;;;;;2.73;80.73;95091.09;1769614;81;21527;-70
2022/12/15 12:06:16;;;;;;;32.23;20.23;;;;;;;2.77;81.00;95100.22;1769827;81;21068;-70
2022/12/15 12:08:54;;;;;;;31.60;19.35;;;;;;;2.75;80.82;95099.78;1676459;85;21044;-69
2022/12/15 12:11:43;;;;;;;24.10;16.63;;;;;;;2.77;81.10;95105.44;1677699;85;21027;-70
2022/12/15 12:14:24;;;;;;;25.07;14.80;;;;;;;2.80;80.99;95106.73;1735294;81;21069;-69
2022/12/15 12:17:17;;;;;;;24.30;16.00;;;;;;;2.81;80.94;95105.86;1753145;81;20999;-70
2022/12/15 12:19:54;;;;;;;27.48;16.00;;;;;;;2.83;80.80;95105.88;1768938;81;21524;-69
2022/12/15 12:22:29;;;;;;;27.33;16.27;;;;;;;2.79;80.32;95100.20;1769655;81;21444;-69
2022/12/15 12:25:10;;;;;;;30.43;17.07;;;;;;;2.78;80.37;95099.78;1752996;81;20995;-70
2022/12/15 12:28:02;;;;;;;26.83;17.50;;;;;;;2.76;80.38;95110.19;1769809;81;21050;-70
2022/12/15 12:30:40;;;;;;;31.37;18.03;;;;;;;2.74;80.31;95113.66;1728865;82;21047;-70
2022/12/15 12:33:33;;;;;;;30.07;17.83;;;;;;;2.76;80.48;95109.33;1739414;82;21062;-70
2022/12/15 12:36:12;;;;;;;28.52;17.65;;;;;;;2.71;80.12;95111.91;1769554;81;21033;-70
2022/12/15 12:38:50;;;;;;;28.40;18.17;;;;;;;2.70;80.83;95102.37;1769551;81;21046;-70
2022/12/15 12:41:59;;;;;;;29.33;18.37;;;;;;;2.76;80.92;95097.60;1768263;81;21472;-70
2022/12/15 12:44:35;;;;;;;33.50;18.63;;;;;;;2.77;80.59;95099.33;1679186;84;21676;-70
2022/12/15 12:47:24;;;;;;;32.27;19.37;;;;;;;2.78;80.69;95091.97;1718842;82;21018;-70
2022/12/15 12:49:56;;;;;;;28.27;17.83;;;;;;;2.80;80.03;95079.83;1747269;82;21023;-69
2022/12/15 12:52:36;;;;;;;31.50;18.17;;;;;;;2.80;79.71;95082.43;1747650;81;21470;-69
2022/12/15 12:55:29;;;;;;;32.10;18.87;;;;;;;2.79;80.05;95087.19;1747321;82;21548;-69
2022/12/15 12:57:56;;;;;;;30.88;19.25;;;;;;;2.78;79.90;95088.06;1747473;82;21515;-70
2022/12/15 13:00:29;;;;;;;31.70;20.03;;;;;;;2.80;80.04;95088.95;1747643;81;21027;-70
2022/12/15 13:03:16;;;;;;;47.65;26.82;;;;;;;2.78;79.95;95085.02;1747699;82;21003;-70
2022/12/15 13:05:46;;;;;;;33.00;19.60;;;;;;;2.77;79.93;95086.30;1747503;81;21035;-70
2022/12/15 13:08:17;;;;;;;36.23;21.17;;;;;;;2.77;80.48;95083.70;1747705;82;20955;-70
2022/12/15 13:10:46;;;;;;;35.93;20.70;;;;;;;2.83;80.84;95078.96;1747662;82;21019;-70
2022/12/15 13:13:31;;;;;;;34.20;20.50;;;;;;;2.87;80.96;95075.48;1747608;82;20971;-70
2022/12/15 13:16:21;;;;;;;42.10;25.13;;;;;;;2.89;80.45;95081.12;1746984;82;21031;-70
2022/12/15 13:19:07;;;;;;;37.57;22.33;;;;;;;2.90;80.24;95068.97;1747182;82;21042;-70
2022/12/15 13:21:47;;;;;;;40.27;22.07;;;;;;;2.93;80.24;95075.08;1747643;81;20994;-68
2022/12/15 13:24:33;;;;;;;32.23;21.30;;;;;;;2.98;80.57;95078.56;1747595;82;21015;-70
2022/12/15 13:27:12;;;;;;;33.77;19.60;;;;;;;3.00;80.61;95078.14;1747584;82;21011;-70
2022/12/15 13:29:58;;;;;;;28.00;17.97;;;;;;;2.95;80.39;95077.70;1747520;82;21080;-70
2022/12/15 13:32:41;;;;;;;26.17;15.90;;;;;;;2.81;80.55;95088.92;1747550;82;21094;-69
2022/12/15 13:35:21;;;;;;;32.00;18.93;;;;;;;2.68;80.82;95092.80;1747488;81;20968;-69
2022/12/15 13:38:03;;;;;;;28.27;15.53;;;;;;;2.61;81.16;95106.22;1747556;82;21019;-69
2022/12/15 13:40:50;;;;;;;27.43;15.90;;;;;;;2.54;81.16;95100.11;1747523;81;21081;-67
2022/12/15 13:43:37;;;;;;;25.93;16.00;;;;;;;2.45;81.37;95094.88;1751214;81;21018;-69
2022/12/15 13:46:25;;;;;;;25.83;15.23;;;;;;;2.40;81.70;95103.54;1753286;81;21012;-70
2022/12/15 13:49:09;;;;;;;26.13;16.37;;;;;;;2.24;82.26;95103.88;1753087;82;21011;-70
2022/12/15 13:51:42;;;;;;;;;;;;;;;2.09;82.68;95108.55;1755104;82;21067;-68
2022/12/15 13:54:20;;;;;;;26.90;15.97;;;;;;;2.02;83.27;95126.31;1753231;82;20146;-69
2022/12/15 13:56:52;;;;;;;38.47;22.97;;;;;;;1.89;83.72;95130.13;1753139;81;21026;-69
2022/12/15 13:59:44;;;;;;;77.23;39.63;;;;;;;1.85;83.35;95134.85;1753454;82;21449;-69
2022/12/15 14:02:28;;;;;;;37.40;22.33;;;;;;;1.86;83.58;95135.72;1753203;81;21023;-69
2022/12/15 14:05:20;;;;;;;30.37;18.20;;;;;;;1.89;83.58;95123.63;1753123;81;21025;-69
2022/12/15 14:07:58;;;;;;;32.33;18.90;;;;;;;1.93;83.54;95110.19;1753010;82;21551;-69
2022/12/15 14:10:36;;;;;;;56.73;30.03;;;;;;;1.88;83.75;95121.86;1753369;81;21480;-69
2022/12/15 14:13:20;;;;;;;54.10;31.43;;;;;;;1.89;83.72;95117.52;1752526;82;21520;-69
2022/12/15 14:16:01;;;;;;;42.37;24.23;;;;;;;1.87;84.24;95124.47;1753309;82;21397;-69